< Typhoon 201926 2019 Season Typhoon 201928 >
Typhoon 201927 (FUNG-WONG)
General InformationDetailed Track InformationTrack Information on Google MapsForecast History on Google MapsAccess Analytics MapList of All Images || NewsDisaster Info.WeblogTrackbackTyphoon FrontTwiphoonTyphoon Now!Typhoon ImaginationJMA Disaster Info. XMLResourceGoogle EarthGE AnimationAtom FeedGeoJSON
Detalied Best Track Wind (Time Zone = UTC)
Year Month Day Hour Lat. Long. Wind (kt) Gust (kt) Direc. of Major Storm Axis Radius of Major Storm Axis (nm) Radius of Minor Storm Axis (nm) Direc. of Major Gale Axis Radius of Major Gale Axis (nm) Radius of Minor Gale Axis (nm) Image
2019 11 17 12 10.6 143.6 0 0 - - - - - - Image
2019 11 17 18 11.0 142.0 0 0 - - - - - - Image
2019 11 18 00 11.5 140.5 0 0 - - - - - - Image
2019 11 18 06 12.0 138.8 0 0 - - - - - - Image
2019 11 18 12 12.3 137.0 0 0 - - - - - - Image
2019 11 18 18 12.4 134.9 0 0 - - - - - - Image
2019 11 19 00 13.1 132.9 0 0 - - - - - - Image
2019 11 19 06 14.0 131.1 0 0 - - - - - - Image
2019 11 19 12 14.7 130.0 0 0 - - - - - - Image
2019 11 19 18 15.3 128.8 0 0 - - - - - - Image
2019 11 20 00 16.1 128.2 35 0 - - - symmetric 120 120 Image
2019 11 20 06 17.6 127.2 40 0 - - - symmetric 120 120 Image
2019 11 20 12 19.0 126.0 45 0 - - - symmetric 120 120 Image
2019 11 20 18 19.6 125.4 50 0 - - - symmetric 150 150 Image
2019 11 21 00 20.2 125.0 55 0 symmetric 60 60 symmetric 150 150 Image
2019 11 21 06 20.5 124.4 55 0 symmetric 40 40 NE 180 150 Image
2019 11 21 12 21.3 124.3 50 0 - - - NE 180 150 Image
2019 11 21 18 22.2 124.4 50 0 - - - symmetric 150 150 Image
2019 11 22 00 22.9 125.0 45 0 - - - symmetric 120 120 Image
2019 11 22 06 23.7 125.4 35 0 - - - symmetric 60 60 Image
2019 11 22 12 24.6 125.3 0 0 - - - - - - Image
2019 11 22 18 25.1 125.3 0 0 - - - - - - Image
2019 11 23 00 25.2 125.5 0 0 - - - - - - Image
2019 11 23 06 25.3 125.6 0 0 - - - - - - Image
2019 11 23 12 26.0 125.9 0 0 - - - - - - Image
2019 11 23 18 28.4 125.6 0 0 - - - - - - Image
2019 11 24 00 30.0 126.2 0 0 - - - - - - Image
2019 11 24 06 30.2 127.7 0 0 - - - - - - Image
2019 11 24 12 31.1 131.6 0 0 - - - - - - Image
2019 11 24 18 31.7 134.1 0 0 - - - - - - Image
2019 11 25 00 32.8 136.7 0 0 - - - - - - Image
Japan Meteorological Agency Best Track Data | Correction Date : 2020-01-16
< Typhoon 201926 2019 Season Typhoon 201928 >

Help